Teec Nos Pos, Arizona
Current Conditions -  °F | °C
As of 11:21 AM on Monday 22 Dec 2014 (Local Time) from KCEZ Reporting Station
Broken Clouds Broken Clouds  
Wind Chill: 35°   Ceiling: 7500
Heat Index: 41°   Visibility: 10mi
Dew Point: 36°   Wind: 9mph
Humidity: 82%   Direction: 280°W
Pressure: 29.88"   Gusts: NA
Location:  36.91°N, 109.1°W
Report Text: KCEZ 221821Z AUTO 28008KT 10SM SCT027 SCT043 BKN075 05/02 A2988 RMK AO2 RAE02 P0000 T00500022
Loading
Personal Weather Stations






























Interactive Weather Map New forecast layout! Learn more

10-Day Weather Forecast

Advertisements
Track Severe Weather on mobile